Time;durP1;ratioP1;P1;durP2;ratioP2;P2;SDS_P1;SDS_P2;PMS_P1;PMS_P2;Temp;Humidity;BMP_temperature;BMP_pressure;BME280_temperature;BME280_humidity;BME280_pressure;Samples;Min_cycle;Max_cycle;Signal;HPM_P1;HPM_P2
2022/08/24 00:00:15;;;;;;;2.33;2.13;;;25.60;40.30;;;;;;5096905;28;20468;-89
2022/08/24 00:02:42;;;;;;;3.67;2.20;;;25.70;40.40;;;;;;5061683;28;20984;-87
2022/08/24 00:05:10;;;;;;;3.07;2.40;;;25.40;41.00;;;;;;5059313;28;20439;-89
2022/08/24 00:07:38;;;;;;;2.53;2.07;;;25.30;41.30;;;;;;5062706;28;20447;-88
2022/08/24 00:10:07;;;;;;;2.80;2.10;;;25.00;42.00;;;;;;5099076;28;20435;-88
2022/08/24 00:12:34;;;;;;;2.40;2.20;;;25.20;41.70;;;;;;5080305;28;20466;-89
2022/08/24 00:15:05;;;;;;;2.27;2.10;;;25.30;41.40;;;;;;5054040;28;20451;-87
2022/08/24 00:17:32;;;;;;;5.73;2.10;;;25.30;41.40;;;;;;5081880;28;20474;-89
2022/08/24 00:19:59;;;;;;;4.53;2.83;;;25.50;41.30;;;;;;5068001;28;20816;-88
2022/08/24 00:22:27;;;;;;;2.53;2.33;;;25.60;40.30;;;;;;5104174;28;20546;-89
2022/08/24 00:24:55;;;;;;;4.87;2.20;;;25.60;40.30;;;;;;5079109;28;20942;-90
2022/08/24 00:27:22;;;;;;;2.50;2.03;;;25.70;40.00;;;;;;5082701;28;20471;-90
2022/08/24 00:29:49;;;;;;;2.37;2.17;;;25.70;39.80;;;;;;5074084;28;20451;-88
2022/08/24 00:32:18;;;;;;;4.03;2.40;;;25.70;40.20;;;;;;5063347;28;20945;-89
2022/08/24 00:34:45;;;;;;;2.37;2.07;;;25.70;40.90;;;;;;5078191;28;20501;-88
2022/08/24 00:37:12;;;;;;;2.67;2.23;;;25.80;40.80;;;;;;5062156;28;20813;-89
2022/08/24 00:39:40;;;;;;;2.10;2.00;;;25.80;40.80;;;;;;5063627;28;20454;-87
2022/08/24 00:42:07;;;;;;;2.87;2.13;;;25.70;41.00;;;;;;5078307;28;20439;-88
2022/08/24 00:44:34;;;;;;;4.33;2.83;;;25.00;42.30;;;;;;5055231;28;20485;-88
2022/08/24 00:47:07;;;;;;;2.30;2.20;;;24.30;43.80;;;;;;5072541;28;20435;-88
2022/08/24 00:49:40;;;;;;;3.00;2.30;;;24.20;44.10;;;;;;5074141;28;20419;-88
2022/08/24 00:52:14;;;;;;;2.87;2.63;;;24.50;42.80;;;;;;5060040;28;20448;-88
2022/08/24 00:54:44;;;;;;;2.13;2.03;;;24.80;42.60;;;;;;5099004;28;20552;-88
2022/08/24 00:57:13;;;;;;;3.10;2.40;;;25.00;42.40;;;;;;5048596;28;20458;-88
2022/08/24 00:59:44;;;;;;;6.23;1.67;;;25.20;42.40;;;;;;5073471;28;20482;-88
2022/08/24 01:02:17;;;;;;;2.60;2.20;;;25.30;42.10;;;;;;5081832;28;20450;-88
2022/08/24 01:04:52;;;;;;;6.00;2.57;;;25.30;42.00;;;;;;5078849;28;20483;-88
2022/08/24 01:07:21;;;;;;;3.23;2.50;;;25.30;41.80;;;;;;5079403;28;20826;-88
2022/08/24 01:09:49;;;;;;;3.93;2.87;;;25.20;42.50;;;;;;5062858;28;20939;-87
2022/08/24 01:12:16;;;;;;;3.20;2.90;;;24.50;43.90;;;;;;5085124;28;21016;-88
2022/08/24 01:14:44;;;;;;;5.00;2.50;;;24.40;44.20;;;;;;5066200;28;20444;-88
2022/08/24 01:19:58;;;;;;;2.33;2.13;;;24.70;43.10;;;;;;5088655;28;20538;-88
2022/08/24 01:22:47;;;;;;;4.23;2.47;;;24.90;43.30;;;;;;5054551;28;20971;-88
2022/08/24 01:25:17;;;;;;;2.30;2.10;;;25.00;43.00;;;;;;5055504;28;20455;-88
2022/08/24 01:27:46;;;;;;;2.63;2.40;;;25.00;42.90;;;;;;5080969;28;20542;-90
2022/08/24 01:30:15;;;;;;;3.03;2.30;;;25.10;42.70;;;;;;5072322;28;20451;-88
2022/08/24 01:32:52;;;;;;;2.83;2.60;;;25.10;42.70;;;;;;5086477;28;20480;-88
2022/08/24 01:35:20;;;;;;;3.40;2.40;;;25.10;42.90;;;;;;5080686;28;20549;-86
2022/08/24 01:37:47;;;;;;;3.40;3.10;;;25.10;42.70;;;;;;5080394;28;20459;-88
2022/08/24 01:40:16;;;;;;;4.70;3.20;;;25.10;43.00;;;;;;5081465;28;20474;-88
2022/08/24 01:42:48;;;;;;;2.83;2.63;;;25.00;43.30;;;;;;5062365;28;20478;-88
2022/08/24 01:45:15;;;;;;;4.43;2.83;;;25.00;43.30;;;;;;5065103;28;20806;-90
2022/08/24 01:47:42;;;;;;;3.13;2.93;;;25.00;43.40;;;;;;5087736;28;20458;-88
2022/08/24 01:50:09;;;;;;;5.70;3.37;;;24.90;43.60;;;;;;5082550;28;20451;-89
2022/08/24 01:52:41;;;;;;;3.87;3.47;;;24.90;43.70;;;;;;5086371;28;20466;-88
2022/08/24 01:55:10;;;;;;;5.33;3.20;;;24.80;44.10;;;;;;5081569;28;20451;-88
2022/08/24 01:57:39;;;;;;;5.03;3.47;;;24.80;44.00;;;;;;5064346;28;20535;-91
2022/08/24 02:00:10;;;;;;;2.80;2.60;;;24.80;43.80;;;;;;5064636;28;20521;-88
2022/08/24 02:02:41;;;;;;;9.20;3.10;;;24.80;44.10;;;;;;5095936;28;20499;-88
2022/08/24 02:05:10;;;;;;;2.67;2.47;;;24.50;44.30;;;;;;5068002;28;20943;-87
2022/08/24 02:07:37;;;;;;;3.00;2.80;;;24.50;44.60;;;;;;5081480;28;20447;-88
2022/08/24 02:10:06;;;;;;;3.30;3.00;;;24.40;44.80;;;;;;5055658;28;20431;-88
2022/08/24 02:12:33;;;;;;;2.97;2.77;;;24.50;44.50;;;;;;5064930;28;20478;-88
2022/08/24 02:15:02;;;;;;;3.97;3.67;;;24.50;44.50;;;;;;5064522;28;20538;-91
2022/08/24 02:17:30;;;;;;;3.60;3.30;;;24.50;44.20;;;;;;5052356;28;20467;-88
2022/08/24 02:19:57;;;;;;;5.30;3.30;;;24.50;44.30;;;;;;5082217;28;20562;-88
2022/08/24 02:22:24;;;;;;;3.00;2.47;;;24.50;44.40;;;;;;5080547;28;20479;-88
2022/08/24 02:24:51;;;;;;;3.13;2.80;;;24.50;44.40;;;;;;5068478;28;20482;-88
2022/08/24 02:27:18;;;;;;;3.53;3.20;;;24.50;44.30;;;;;;5081474;28;20458;-87
2022/08/24 02:29:45;;;;;;;2.63;2.43;;;24.50;44.30;;;;;;5058219;28;20456;-87
2022/08/24 02:32:15;;;;;;;2.77;2.57;;;24.50;44.20;;;;;;5080380;28;21085;-87
2022/08/24 02:34:42;;;;;;;3.10;2.87;;;24.50;44.10;;;;;;5060452;28;20842;-88
2022/08/24 02:37:10;;;;;;;6.90;3.30;;;24.50;44.50;;;;;;5051385;28;20471;-88
2022/08/24 02:39:38;;;;;;;5.27;3.60;;;24.40;44.50;;;;;;5065433;28;20450;-89
2022/08/24 02:42:07;;;;;;;4.33;2.93;;;24.30;44.40;;;;;;5064915;28;20507;-88
2022/08/24 02:44:35;;;;;;;3.07;2.77;;;24.30;44.60;;;;;;5079425;28;20455;-89
2022/08/24 02:47:02;;;;;;;3.20;2.90;;;24.30;44.70;;;;;;5077974;28;20948;-90
2022/08/24 02:49:31;;;;;;;3.13;2.90;;;24.30;45.00;;;;;;5069350;28;20500;-88
2022/08/24 02:51:59;;;;;;;5.97;3.20;;;24.30;45.20;;;;;;5077403;28;20444;-88
2022/08/24 02:54:26;;;;;;;3.87;2.87;;;24.30;45.10;;;;;;5059723;28;20480;-87
2022/08/24 02:56:53;;;;;;;3.00;2.70;;;24.20;45.00;;;;;;5062109;28;20491;-88
2022/08/24 02:59:21;;;;;;;4.53;3.00;;;24.10;45.10;;;;;;5060239;28;20439;-87
2022/08/24 03:01:50;;;;;;;3.97;3.67;;;24.10;45.20;;;;;;5094791;28;20476;-87
2022/08/24 03:04:19;;;;;;;3.47;3.17;;;24.10;45.40;;;;;;5053125;28;20567;-88
2022/08/24 03:06:47;;;;;;;3.50;3.20;;;24.00;45.10;;;;;;5062710;28;20467;-88
2022/08/24 03:09:15;;;;;;;2.93;2.73;;;24.00;45.10;;;;;;5061890;28;21093;-87
2022/08/24 03:11:43;;;;;;;6.00;2.93;;;23.90;45.60;;;;;;5083054;28;20454;-88
2022/08/24 03:14:10;;;;;;;3.10;2.90;;;23.90;45.70;;;;;;5062025;28;20502;-88
2022/08/24 03:16:38;;;;;;;3.73;3.03;;;23.90;45.80;;;;;;5059039;28;20467;-88
2022/08/24 03:19:05;;;;;;;3.37;3.07;;;23.80;45.60;;;;;;5059918;28;20471;-87
2022/08/24 03:21:35;;;;;;;4.00;2.87;;;23.90;45.60;;;;;;5076788;28;20432;-88
2022/08/24 03:24:04;;;;;;;2.67;2.53;;;23.80;45.70;;;;;;5044139;28;20609;-88
2022/08/24 03:26:32;;;;;;;3.00;2.70;;;23.80;45.50;;;;;;5079529;28;20451;-88
2022/08/24 03:28:59;;;;;;;3.77;2.93;;;23.70;45.40;;;;;;5059539;28;20805;-88
2022/08/24 03:31:27;;;;;;;3.60;3.30;;;23.70;45.80;;;;;;5052316;28;20486;-88
2022/08/24 03:33:54;;;;;;;3.83;3.00;;;23.70;45.80;;;;;;5060658;28;20819;-88
2022/08/24 03:36:21;;;;;;;3.13;2.80;;;23.60;45.60;;;;;;5052223;28;20440;-88
2022/08/24 03:38:49;;;;;;;4.20;2.87;;;23.60;45.70;;;;;;5067017;28;20651;-89
2022/08/24 03:41:17;;;;;;;3.20;2.90;;;23.60;46.00;;;;;;5065888;28;20503;-87
2022/08/24 03:43:47;;;;;;;3.30;3.00;;;23.50;46.40;;;;;;5065825;28;20459;-88
2022/08/24 03:46:23;;;;;;;3.93;2.70;;;23.40;46.30;;;;;;5075231;28;21157;-88
2022/08/24 03:48:51;;;;;;;5.77;2.80;;;23.40;46.30;;;;;;5077062;28;20440;-86
2022/08/24 03:51:23;;;;;;;7.53;3.30;;;23.40;46.90;;;;;;5090306;28;20539;-88
2022/08/24 03:53:51;;;;;;;3.23;3.03;;;23.40;46.40;;;;;;5093515;28;20496;-88
2022/08/24 03:56:20;;;;;;;4.60;3.80;;;23.40;46.20;;;;;;5059370;28;20527;-87
2022/08/24 03:58:49;;;;;;;3.20;2.90;;;23.40;46.40;;;;;;5087073;28;20573;-88
2022/08/24 04:01:16;;;;;;;3.90;3.40;;;23.40;46.50;;;;;;5082204;28;20443;-89
2022/08/24 04:03:46;;;;;;;3.87;2.83;;;23.30;46.60;;;;;;5070242;28;20822;-88
2022/08/24 04:06:16;;;;;;;6.60;2.97;;;23.30;46.50;;;;;;5084024;28;20440;-84
2022/08/24 04:08:44;;;;;;;4.30;3.10;;;23.30;47.20;;;;;;5076086;28;20530;-85
2022/08/24 04:11:12;;;;;;;4.00;3.23;;;23.30;46.90;;;;;;5083650;28;20537;-84
2022/08/24 04:13:41;;;;;;;5.53;3.30;;;23.20;47.00;;;;;;5057833;28;20471;-86
2022/08/24 04:16:11;;;;;;;2.90;2.70;;;23.20;47.30;;;;;;5088717;28;20517;-86
2022/08/24 04:18:39;;;;;;;3.40;3.07;;;23.20;47.30;;;;;;5071413;28;20458;-85
2022/08/24 04:21:14;;;;;;;3.50;3.20;;;23.10;47.10;;;;;;5057501;28;20483;-86
2022/08/24 04:23:42;;;;;;;3.80;3.40;;;23.10;47.20;;;;;;5077411;28;20468;-85
2022/08/24 04:26:09;;;;;;;3.40;3.10;;;23.10;47.40;;;;;;5070938;28;20546;-87
2022/08/24 04:28:36;;;;;;;4.03;3.73;;;23.00;47.50;;;;;;5085470;28;20447;-85
2022/08/24 04:31:06;;;;;;;8.13;3.17;;;23.00;47.60;;;;;;5067736;28;20458;-85
2022/08/24 04:33:40;;;;;;;3.37;3.13;;;23.00;47.80;;;;;;5065418;28;20455;-86
2022/08/24 04:36:09;;;;;;;4.33;3.10;;;22.90;47.80;;;;;;5059530;28;20709;-87
2022/08/24 04:38:39;;;;;;;3.73;3.43;;;22.90;48.00;;;;;;5087162;28;20541;-85
2022/08/24 04:41:36;;;;;;;3.90;3.50;;;22.90;48.20;;;;;;5087765;28;20453;-85
2022/08/24 04:44:04;;;;;;;5.50;3.27;;;22.90;48.20;;;;;;5086832;28;20458;-85
2022/08/24 04:46:34;;;;;;;3.67;3.37;;;22.90;48.30;;;;;;5065592;28;20832;-85
2022/08/24 04:49:01;;;;;;;4.70;3.60;;;22.90;48.20;;;;;;5082503;28;20442;-84
2022/08/24 04:51:28;;;;;;;3.63;3.33;;;22.90;48.50;;;;;;5052398;28;20443;-84
2022/08/24 04:53:55;;;;;;;3.90;3.60;;;22.90;48.00;;;;;;5072122;28;20474;-85
2022/08/24 04:56:25;;;;;;;3.13;2.93;;;22.80;48.40;;;;;;5086579;28;20926;-84
2022/08/24 04:58:55;;;;;;;3.40;3.10;;;22.80;48.40;;;;;;5084084;28;20915;-85
2022/08/24 05:01:25;;;;;;;3.77;3.33;;;22.80;48.20;;;;;;5083638;28;20588;-85
2022/08/24 05:03:55;;;;;;;3.57;3.27;;;22.80;48.20;;;;;;5056360;28;20479;-86
2022/08/24 05:06:24;;;;;;;3.70;3.40;;;22.80;48.20;;;;;;5062058;28;20460;-86
2022/08/24 05:08:52;;;;;;;3.47;3.10;;;22.90;48.40;;;;;;5052468;28;21369;-84
2022/08/24 05:11:21;;;;;;;3.73;3.13;;;22.90;48.40;;;;;;5085958;28;20452;-85
2022/08/24 05:13:51;;;;;;;3.53;2.97;;;22.90;48.40;;;;;;5064056;28;20499;-85
2022/08/24 05:16:19;;;;;;;3.40;2.90;;;22.90;48.50;;;;;;5064216;28;20432;-85
2022/08/24 05:18:48;;;;;;;4.03;3.20;;;22.90;48.50;;;;;;5063059;28;20459;-84
2022/08/24 05:21:21;;;;;;;7.13;3.70;;;22.90;48.50;;;;;;5062007;28;20461;-86
2022/08/24 05:23:50;;;;;;;11.30;3.97;;;22.90;48.90;;;;;;5062858;28;20550;-86
2022/08/24 05:26:20;;;;;;;4.03;3.73;;;22.90;49.60;;;;;;5063228;28;20462;-86
2022/08/24 05:28:47;;;;;;;8.70;4.27;;;22.90;49.70;;;;;;5079970;28;20450;-86
2022/08/24 05:31:17;;;;;;;6.43;4.13;;;22.90;50.20;;;;;;5088620;28;20447;-83
2022/08/24 05:33:44;;;;;;;7.50;4.27;;;23.00;50.80;;;;;;5071971;28;20920;-85
2022/08/24 05:36:19;;;;;;;4.10;3.80;;;23.00;50.90;;;;;;5083852;28;20454;-86
2022/08/24 05:38:48;;;;;;;3.97;3.60;;;23.00;50.70;;;;;;5056719;28;20466;-86
2022/08/24 05:41:16;;;;;;;4.50;4.10;;;23.10;50.60;;;;;;5098312;28;20806;-85
2022/08/24 05:43:45;;;;;;;6.17;3.90;;;23.10;50.40;;;;;;5053876;28;20558;-87
2022/08/24 05:46:13;;;;;;;3.90;3.60;;;23.10;50.30;;;;;;5062958;28;20435;-84
2022/08/24 05:48:41;;;;;;;4.80;4.30;;;23.10;50.30;;;;;;5052452;28;20526;-87
2022/08/24 05:51:09;;;;;;;4.70;4.30;;;23.10;50.60;;;;;;5074855;28;20456;-88
2022/08/24 05:53:46;;;;;;;6.03;3.90;;;23.10;50.60;;;;;;5071233;28;20504;-86
2022/08/24 05:56:15;;;;;;;5.40;4.47;;;23.10;50.50;;;;;;5087651;28;20474;-87
2022/08/24 05:58:43;;;;;;;4.33;3.93;;;23.10;50.50;;;;;;5070915;28;20463;-88
2022/08/24 06:01:13;;;;;;;4.50;3.87;;;23.20;50.50;;;;;;5074430;28;20455;-85
2022/08/24 06:03:41;;;;;;;4.80;4.40;;;23.20;50.50;;;;;;5072334;28;20482;-87
2022/08/24 06:06:10;;;;;;;4.37;3.83;;;23.20;50.70;;;;;;5072427;28;20443;-87
2022/08/24 06:08:39;;;;;;;4.57;3.80;;;23.20;50.50;;;;;;5089501;28;20441;-86
2022/08/24 06:11:07;;;;;;;4.30;3.97;;;23.20;50.00;;;;;;5070157;28;20463;-87
2022/08/24 06:13:34;;;;;;;5.07;4.10;;;23.20;50.30;;;;;;5086030;28;20467;-86
2022/08/24 06:16:06;;;;;;;5.80;3.90;;;23.30;50.30;;;;;;5070280;28;21133;-87
2022/08/24 06:18:34;;;;;;;4.20;3.80;;;23.30;50.40;;;;;;5070134;28;20478;-87
2022/08/24 06:21:07;;;;;;;4.93;3.70;;;23.40;50.50;;;;;;5075266;28;20446;-87
2022/08/24 06:23:35;;;;;;;4.00;3.70;;;23.40;50.60;;;;;;5089785;28;20487;-87
2022/08/24 06:28:53;;;;;;;9.73;4.00;;;23.50;50.40;;;;;;5077067;28;20446;-87
2022/08/24 06:31:23;;;;;;;4.40;4.00;;;23.50;50.20;;;;;;5071076;28;20520;-87
2022/08/24 06:33:50;;;;;;;5.73;3.80;;;23.60;50.10;;;;;;5064614;28;20563;-87
2022/08/24 06:36:18;;;;;;;6.27;4.10;;;23.70;50.00;;;;;;5066834;28;20539;-86
2022/08/24 06:38:46;;;;;;;5.27;3.50;;;23.70;50.10;;;;;;5074172;28;20462;-87
2022/08/24 06:41:15;;;;;;;10.03;4.53;;;23.70;49.90;;;;;;5073258;28;20987;-88
2022/08/24 06:43:42;;;;;;;3.90;3.60;;;23.90;49.80;;;;;;5070897;28;20466;-87
2022/08/24 06:46:13;;;;;;;5.03;3.90;;;23.90;49.40;;;;;;5073059;28;20443;-87
2022/08/24 06:48:43;;;;;;;8.10;3.60;;;23.90;49.60;;;;;;5068611;28;20468;-88
2022/08/24 06:51:12;;;;;;;3.80;3.50;;;24.00;49.40;;;;;;5078464;28;20931;-86
2022/08/24 06:53:40;;;;;;;3.80;3.40;;;24.20;49.10;;;;;;5070875;28;20498;-87
2022/08/24 06:56:08;;;;;;;7.07;4.10;;;24.30;48.80;;;;;;5073672;28;20966;-88
2022/08/24 06:58:37;;;;;;;5.10;3.67;;;24.40;48.50;;;;;;5070558;28;20482;-87
2022/08/24 07:01:12;;;;;;;4.37;3.63;;;24.40;48.40;;;;;;5069787;28;20501;-88
2022/08/24 07:03:40;;;;;;;8.60;4.00;;;24.30;48.80;;;;;;5074224;28;20471;-86
2022/08/24 07:06:32;;;;;;;3.67;3.37;;;24.40;48.90;;;;;;5072491;28;20454;-86
2022/08/24 07:09:01;;;;;;;6.30;3.63;;;24.50;48.70;;;;;;5071715;28;20458;-87
2022/08/24 07:11:28;;;;;;;4.10;3.47;;;24.40;48.90;;;;;;5074165;28;21305;-87
2022/08/24 07:13:57;;;;;;;5.30;3.37;;;24.30;49.20;;;;;;5067555;28;20467;-86
2022/08/24 07:16:24;;;;;;;5.00;4.20;;;24.50;48.90;;;;;;5052895;28;20447;-87
2022/08/24 07:18:54;;;;;;;4.67;3.30;;;24.60;48.50;;;;;;5073533;28;20883;-88
2022/08/24 07:21:22;;;;;;;4.40;3.43;;;24.70;48.30;;;;;;5089998;28;20454;-87
2022/08/24 07:23:55;;;;;;;8.67;3.40;;;24.80;48.30;;;;;;5067221;28;20514;-88
2022/08/24 07:26:24;;;;;;;7.10;3.90;;;24.90;48.20;;;;;;5087865;28;20462;-88
2022/08/24 07:28:58;;;;;;;4.60;3.40;;;25.00;48.20;;;;;;5091728;28;20451;-89
2022/08/24 07:31:28;;;;;;;5.40;3.90;;;25.10;48.00;;;;;;5072215;28;20456;-88
2022/08/24 07:34:09;;;;;;;3.77;3.37;;;25.20;48.00;;;;;;5072368;28;20459;-88
2022/08/24 07:36:39;;;;;;;9.47;3.87;;;25.50;47.60;;;;;;5073531;28;20452;-88
2022/08/24 07:39:07;;;;;;;4.30;3.90;;;25.50;47.50;;;;;;5070610;28;20500;-88
2022/08/24 07:41:39;;;;;;;4.07;3.67;;;25.10;48.20;;;;;;5079065;28;20450;-89
2022/08/24 07:44:07;;;;;;;3.80;3.50;;;25.30;48.20;;;;;;5073368;28;20467;-88
2022/08/24 07:46:36;;;;;;;4.07;3.63;;;25.50;47.70;;;;;;5089402;28;20480;-88
2022/08/24 07:49:06;;;;;;;6.93;4.17;;;25.70;47.60;;;;;;5073502;28;20439;-86
2022/08/24 07:51:33;;;;;;;5.83;3.83;;;25.80;47.30;;;;;;5078553;28;20455;-88
2022/08/24 07:54:02;;;;;;;5.43;3.63;;;26.00;47.40;;;;;;5089548;28;20475;-88
2022/08/24 07:56:35;;;;;;;6.47;4.00;;;26.10;47.00;;;;;;5062521;28;20984;-88
2022/08/24 07:59:03;;;;;;;9.03;4.30;;;26.00;47.20;;;;;;5080331;28;20481;-88
2022/08/24 08:01:31;;;;;;;7.77;4.47;;;26.10;47.30;;;;;;5055842;28;21003;-87
2022/08/24 08:03:59;;;;;;;4.10;3.70;;;26.00;47.00;;;;;;5082580;28;20545;-88
2022/08/24 08:06:27;;;;;;;4.00;3.60;;;26.20;46.90;;;;;;5053070;28;20452;-89
2022/08/24 08:08:59;;;;;;;7.83;4.33;;;26.20;46.80;;;;;;5056802;28;20435;-88
2022/08/24 08:11:26;;;;;;;7.50;3.90;;;26.40;46.60;;;;;;5089172;28;20463;-87
2022/08/24 08:13:54;;;;;;;4.60;4.20;;;26.40;46.30;;;;;;5068453;28;20471;-86
2022/08/24 08:16:21;;;;;;;5.80;3.90;;;26.40;46.50;;;;;;5075130;28;20545;-87
2022/08/24 08:18:48;;;;;;;4.43;4.00;;;26.60;46.30;;;;;;5081669;28;20467;-88
2022/08/24 08:24:15;;;;;;;5.30;4.17;;;26.80;45.60;;;;;;5081782;28;20695;-87
2022/08/24 08:26:43;;;;;;;5.70;4.63;;;27.00;45.60;;;;;;5082525;28;21090;-88
2022/08/24 08:29:18;;;;;;;4.77;4.30;;;27.10;45.00;;;;;;5081803;28;20499;-88
2022/08/24 08:31:46;;;;;;;4.23;3.83;;;27.00;45.20;;;;;;5073237;28;20436;-88
2022/08/24 08:34:13;;;;;;;4.20;3.80;;;27.00;45.60;;;;;;5070152;28;20482;-87
2022/08/24 08:36:45;;;;;;;4.20;3.80;;;27.20;44.90;;;;;;5076080;28;20445;-90
2022/08/24 08:39:16;;;;;;;5.27;3.70;;;27.20;45.10;;;;;;5085588;28;20493;-88
2022/08/24 08:42:16;;;;;;;4.73;3.30;;;27.20;44.80;;;;;;5075101;28;20535;-88
2022/08/24 08:45:00;;;;;;;4.97;4.30;;;27.50;44.50;;;;;;5056318;28;20450;-88
2022/08/24 08:47:49;;;;;;;5.13;3.70;;;27.60;44.10;;;;;;5072503;28;21176;-88
2022/08/24 08:50:24;;;;;;;4.30;3.90;;;27.50;43.90;;;;;;5075567;28;20488;-88
2022/08/24 08:53:25;;;;;;;8.23;4.80;;;27.60;44.10;;;;;;5084384;28;20467;-88
2022/08/24 08:56:06;;;;;;;4.47;4.07;;;27.80;43.90;;;;;;5068662;28;20520;-88
2022/08/24 08:58:49;;;;;;;5.73;4.40;;;27.70;43.70;;;;;;5093338;28;20464;-88
2022/08/24 09:01:26;;;;;;;4.27;3.87;;;27.50;43.80;;;;;;5061608;28;20489;-87
2022/08/24 09:04:18;;;;;;;5.70;3.50;;;27.70;43.60;;;;;;5065143;28;20478;-86
2022/08/24 09:07:02;;;;;;;4.93;3.30;;;27.70;43.60;;;;;;5077375;28;20451;-88
2022/08/24 09:10:02;;;;;;;4.23;3.23;;;27.80;43.40;;;;;;5070719;28;20452;-87
2022/08/24 09:12:46;;;;;;;3.00;2.70;;;28.00;43.20;;;;;;5076797;28;20493;-89
2022/08/24 09:15:28;;;;;;;4.03;3.63;;;28.30;42.00;;;;;;5075641;28;20777;-87
2022/08/24 09:18:09;;;;;;;3.40;3.10;;;28.40;41.80;;;;;;5087813;28;20454;-89
2022/08/24 09:20:56;;;;;;;4.23;3.80;;;28.60;41.20;;;;;;5055690;28;20448;-90
2022/08/24 09:23:36;;;;;;;3.73;3.30;;;28.90;41.30;;;;;;5049732;28;20499;-90
2022/08/24 09:26:14;;;;;;;4.90;3.40;;;29.20;39.30;;;;;;5049271;28;20455;-91
2022/08/24 09:28:44;;;;;;;5.93;3.00;;;29.20;39.80;;;;;;5055843;28;20477;-90
2022/08/24 09:31:33;;;;;;;3.63;3.10;;;29.50;38.80;;;;;;5061745;28;20456;-90
2022/08/24 09:34:09;;;;;;;3.73;2.97;;;29.60;38.70;;;;;;5079056;28;20475;-91
2022/08/24 09:36:51;;;;;;;3.17;2.87;;;29.80;38.50;;;;;;5079712;28;20456;-91
2022/08/24 09:39:44;;;;;;;4.20;2.87;;;30.20;38.00;;;;;;5078709;28;20508;-91
2022/08/24 09:42:56;;;;;;;3.00;2.77;;;30.40;37.10;;;;;;5065717;28;20478;-91
2022/08/24 09:46:06;;;;;;;4.77;3.30;;;30.50;36.70;;;;;;5068540;28;20468;-90
2022/08/24 09:49:05;;;;;;;3.17;2.97;;;30.40;36.70;;;;;;5071309;28;20451;-90
2022/08/24 09:52:14;;;;;;;2.70;2.50;;;30.60;36.30;;;;;;5064847;28;20469;-90
2022/08/24 09:55:16;;;;;;;3.03;2.67;;;31.00;36.20;;;;;;5075780;28;20471;-91
2022/08/24 09:57:54;;;;;;;2.87;2.67;;;31.30;35.10;;;;;;5045321;28;20451;-92
2022/08/24 10:00:25;;;;;;;2.93;2.73;;;30.90;34.70;;;;;;5069952;28;20477;-91
2022/08/24 10:03:02;;;;;;;2.80;1.97;;;31.00;35.30;;;;;;5064178;28;20459;-89
2022/08/24 10:05:53;;;;;;;4.53;2.70;;;31.20;33.60;;;;;;5095781;28;20439;-89
2022/08/24 10:08:28;;;;;;;3.07;2.50;;;31.20;33.10;;;;;;5081847;28;20455;-90
2022/08/24 10:11:05;;;;;;;3.20;2.40;;;31.30;33.00;;;;;;5078022;28;20462;-87
2022/08/24 10:13:40;;;;;;;3.00;2.70;;;31.50;34.70;;;;;;5090684;28;20507;-88
2022/08/24 10:16:20;;;;;;;2.90;2.70;;;31.80;33.20;;;;;;5094858;28;20941;-88
2022/08/24 10:18:59;;;;;;;3.40;2.60;;;31.80;32.50;;;;;;5092702;28;20483;-88
2022/08/24 10:21:39;;;;;;;2.80;2.20;;;32.20;32.50;;;;;;5071007;28;21234;-87
2022/08/24 10:24:32;;;;;;;2.50;2.30;;;32.20;31.10;;;;;;5078294;28;20455;-89
2022/08/24 10:27:17;;;;;;;5.57;2.50;;;32.30;31.40;;;;;;5085681;28;20471;-88
2022/08/24 10:30:11;;;;;;;2.83;2.63;;;32.40;31.10;;;;;;5077098;28;20523;-88
2022/08/24 10:32:50;;;;;;;3.20;2.80;;;32.70;31.20;;;;;;5074696;28;20553;-88
2022/08/24 10:35:25;;;;;;;3.33;2.70;;;33.00;31.10;;;;;;5092637;28;20450;-88
2022/08/24 10:41:42;;;;;;;4.63;2.70;;;33.60;30.00;;;;;;5092290;28;20530;-88
2022/08/24 10:44:39;;;;;;;2.50;2.40;;;33.60;30.10;;;;;;5090787;28;20499;-88
2022/08/24 10:47:14;;;;;;;3.83;2.90;;;33.60;28.80;;;;;;5091965;28;20824;-88
2022/08/24 10:50:13;;;;;;;3.37;3.07;;;33.50;30.00;;;;;;5092600;28;20436;-88
2022/08/24 10:53:14;;;;;;;3.07;2.70;;;33.80;30.00;;;;;;5090587;28;20472;-88
2022/08/24 10:55:42;;;;;;;2.47;2.03;;;34.20;29.50;;;;;;5089832;28;21187;-88
2022/08/24 10:58:28;;;;;;;2.97;2.77;;;34.40;29.40;;;;;;5092102;28;20436;-87
2022/08/24 11:00:55;;;;;;;2.70;2.53;;;34.50;29.00;;;;;;5085597;28;20478;-88
2022/08/24 11:03:25;;;;;;;3.30;2.20;;;34.60;28.80;;;;;;5073610;28;20489;-87
2022/08/24 11:05:54;;;;;;;3.83;2.10;;;34.70;28.50;;;;;;5074945;28;20444;-87
2022/08/24 11:08:26;;;;;;;3.40;2.73;;;34.70;27.70;;;;;;5090829;28;20528;-88
2022/08/24 11:11:08;;;;;;;3.53;2.90;;;34.60;28.00;;;;;;5070355;28;20478;-87
2022/08/24 11:13:37;;;;;;;5.20;2.33;;;34.30;27.80;;;;;;5088050;28;20795;-87
2022/08/24 11:16:05;;;;;;;3.13;2.57;;;34.40;27.80;;;;;;5086113;28;20920;-87
2022/08/24 11:18:48;;;;;;;3.13;2.30;;;34.50;28.40;;;;;;5085783;28;20715;-89
2022/08/24 11:21:34;;;;;;;2.87;2.67;;;34.90;27.60;;;;;;5084888;28;20447;-87
2022/08/24 11:24:05;;;;;;;3.30;2.30;;;34.70;27.50;;;;;;5080180;28;20803;-89
2022/08/24 11:26:47;;;;;;;2.37;2.17;;;34.40;27.10;;;;;;5087442;28;20447;-87
2022/08/24 11:29:14;;;;;;;2.60;2.40;;;34.50;27.60;;;;;;5075789;28;20447;-88
2022/08/24 11:31:42;;;;;;;2.47;2.27;;;34.40;27.50;;;;;;5071655;28;20455;-88
2022/08/24 11:34:17;;;;;;;2.50;2.20;;;34.30;27.60;;;;;;5071181;28;20472;-89
2022/08/24 11:36:44;;;;;;;4.00;2.23;;;34.30;27.40;;;;;;5086916;28;20958;-90
2022/08/24 11:39:19;;;;;;;3.10;2.50;;;34.30;26.80;;;;;;5090098;28;20467;-87
2022/08/24 11:41:55;;;;;;;2.13;2.03;;;34.30;27.70;;;;;;5090229;28;20442;-88
2022/08/24 11:44:37;;;;;;;1.83;1.73;;;34.20;26.80;;;;;;5070167;28;20910;-88
2022/08/24 11:47:23;;;;;;;4.37;2.43;;;34.00;27.70;;;;;;5090664;28;20440;-88
2022/08/24 11:49:59;;;;;;;2.50;2.30;;;34.20;27.10;;;;;;5089418;28;20449;-88
2022/08/24 11:52:36;;;;;;;2.70;2.50;;;34.30;26.60;;;;;;5088998;28;20847;-87
2022/08/24 11:55:10;;;;;;;5.43;2.20;;;34.30;26.20;;;;;;5088159;28;20458;-87
2022/08/24 11:57:41;;;;;;;5.80;2.83;;;34.40;27.40;;;;;;5090440;28;20492;-86
2022/08/24 12:00:15;;;;;;;2.40;2.20;;;34.40;26.80;;;;;;5085931;28;20476;-87
2022/08/24 12:02:54;;;;;;;3.33;3.03;;;34.50;27.60;;;;;;5073213;28;20501;-86
2022/08/24 12:05:26;;;;;;;3.93;2.60;;;34.60;27.10;;;;;;5087773;28;20456;-87
2022/08/24 12:08:05;;;;;;;5.20;2.50;;;34.40;27.20;;;;;;5090390;28;20465;-86
2022/08/24 12:10:41;;;;;;;2.90;2.23;;;34.40;26.70;;;;;;5089216;28;20485;-87
2022/08/24 12:13:15;;;;;;;2.63;2.43;;;34.20;26.50;;;;;;5093545;28;20471;-88
2022/08/24 12:15:48;;;;;;;2.83;2.63;;;34.30;26.90;;;;;;5089941;28;20452;-87
2022/08/24 12:18:24;;;;;;;2.57;2.37;;;34.50;27.00;;;;;;5092502;28;20467;-88
2022/08/24 12:20:53;;;;;;;2.53;2.33;;;34.60;27.20;;;;;;5090317;28;20486;-86
2022/08/24 12:23:25;;;;;;;3.10;2.60;;;34.80;27.00;;;;;;5091595;28;20839;-88
2022/08/24 12:26:02;;;;;;;2.90;2.60;;;34.80;26.30;;;;;;5091955;28;20443;-87
2022/08/24 12:28:35;;;;;;;2.73;2.53;;;34.70;26.90;;;;;;5090947;28;20525;-87
2022/08/24 12:31:11;;;;;;;2.03;1.93;;;34.80;26.30;;;;;;5094567;28;20480;-88
2022/08/24 12:33:43;;;;;;;2.60;2.40;;;35.00;26.60;;;;;;5078027;28;20794;-85
2022/08/24 12:36:19;;;;;;;2.47;2.27;;;35.20;25.50;;;;;;5092396;28;20458;-88
2022/08/24 12:39:03;;;;;;;3.83;2.37;;;35.20;24.50;;;;;;5091395;28;20451;-87
2022/08/24 12:41:34;;;;;;;2.70;2.17;;;35.30;24.60;;;;;;5090571;28;20461;-87
2022/08/24 12:44:06;;;;;;;2.90;2.50;;;35.40;24.20;;;;;;5091216;28;20562;-87
2022/08/24 12:46:35;;;;;;;2.07;1.97;;;35.30;24.60;;;;;;5090763;28;20596;-89
2022/08/24 12:49:06;;;;;;;2.60;2.20;;;35.50;24.50;;;;;;5093364;28;20452;-87
2022/08/24 12:51:58;;;;;;;7.90;4.40;;;35.60;24.30;;;;;;5091127;28;20442;-89
2022/08/24 12:54:47;;;;;;;2.50;2.30;;;35.50;24.10;;;;;;5092031;28;20560;-87
2022/08/24 12:57:30;;;;;;;2.23;2.10;;;35.40;24.30;;;;;;5081364;28;20512;-88
2022/08/24 13:00:02;;;;;;;7.10;2.47;;;35.60;23.90;;;;;;5092246;28;20466;-89
2022/08/24 13:02:36;;;;;;;4.13;2.10;;;35.50;24.50;;;;;;5087504;28;20459;-87
2022/08/24 13:05:10;;;;;;;4.67;2.40;;;35.50;24.10;;;;;;5089034;28;21016;-86
2022/08/24 13:07:41;;;;;;;2.70;2.50;;;35.60;24.10;;;;;;5089645;28;20750;-87
2022/08/24 13:10:13;;;;;;;4.83;2.20;;;35.60;24.20;;;;;;5092023;28;20930;-87
2022/08/24 13:12:55;;;;;;;3.20;2.40;;;35.50;24.20;;;;;;5070272;28;20486;-87
2022/08/24 13:15:52;;;;;;;2.60;2.40;;;35.30;23.90;;;;;;5091477;28;20558;-86
2022/08/24 13:18:51;;;;;;;2.53;2.33;;;35.10;24.40;;;;;;5092599;28;20458;-87
2022/08/24 13:21:51;;;;;;;2.50;2.20;;;35.20;25.10;;;;;;5089324;27;20474;-86
2022/08/24 13:24:57;;;;;;;2.60;2.40;;;35.70;24.20;;;;;;5086881;28;20480;-87
2022/08/24 13:27:47;;;;;;;2.00;1.90;;;36.10;24.00;;;;;;5089323;28;20891;-87
2022/08/24 13:30:30;;;;;;;2.30;2.10;;;36.20;23.40;;;;;;5089300;28;20447;-89